Terminal Aerodrome Forecast
Issued by NWS

Home | Current Version | Previous Version | Text Only | Print | Product List | Glossary On
Versions: 1 2 3 4 5 6 7 8 9 10 11 12 13 14
139
FTUS42 TJSJ 172340
TAFNCM
TAF
TNCM 172340Z 1800/1824 16012KT P6SM VCSH FEW020 SCT040
     FM181400 12015KT P6SM VCSH SCT020=

USA.gov is the U.S. government's official web portal to all federal, state and local government web resources and services.